Time;durP1;ratioP1;P1;durP2;ratioP2;P2;SDS_P1;SDS_P2;PMS_P1;PMS_P2;Temp;Humidity;BMP_temperature;BMP_pressure;BME280_temperature;BME280_humidity;BME280_pressure;Samples;Min_cycle;Max_cycle;Signal;HPM_P1;HPM_P2
2021/12/14 00:01:00;;;;;;;13.70;6.88;;;8.80;99.90;;;;;;5040283;28;20041;-77
2021/12/14 00:03:30;;;;;;;5.55;3.70;;;8.80;99.90;;;;;;5044318;28;20041;-77
2021/12/14 00:05:57;;;;;;;1.45;1.38;;;8.80;99.90;;;;;;5026284;28;20091;-77
2021/12/14 00:08:25;;;;;;;2.10;1.73;;;8.80;99.90;;;;;;5024690;28;20121;-77
2021/12/14 00:13:41;;;;;;;;;;;8.80;99.90;;;;;;5042075;28;20578;-77
2021/12/14 00:16:10;;;;;;;1.45;1.15;;;8.70;99.90;;;;;;5053057;28;19924;-76
2021/12/14 00:18:36;;;;;;;10.77;6.90;;;8.80;99.90;;;;;;5051718;28;20041;-77
2021/12/14 00:21:20;;;;;;;4.68;3.53;;;8.80;99.90;;;;;;5042362;28;20076;-77
2021/12/14 00:24:08;;;;;;;0.98;0.98;;;8.80;99.90;;;;;;5037061;28;20434;-77
2021/12/14 00:26:48;;;;;;;2.15;1.90;;;8.70;99.90;;;;;;5029268;28;20049;-77
2021/12/14 00:29:37;;;;;;;3.00;2.55;;;8.80;99.90;;;;;;5023129;28;20049;-77
2021/12/14 00:32:10;;;;;;;8.40;4.30;;;8.80;99.90;;;;;;5024708;28;20128;-77
2021/12/14 00:34:40;;;;;;;;;;;8.80;99.90;;;;;;5020979;28;20124;-77
2021/12/14 00:37:17;;;;;;;3.95;3.03;;;8.70;99.90;;;;;;5037803;28;19932;-77
2021/12/14 00:39:44;;;;;;;2.38;1.58;;;8.70;99.90;;;;;;5036625;28;20046;-77
2021/12/14 00:42:10;;;;;;;3.97;2.65;;;8.70;99.90;;;;;;5024203;28;20092;-77
2021/12/14 00:44:36;;;;;;;7.70;4.25;;;8.70;99.90;;;;;;5041883;28;20045;-77
2021/12/14 00:47:03;;;;;;;2.65;1.80;;;8.70;99.90;;;;;;5023452;28;20539;-77
2021/12/14 00:49:30;;;;;;;5.72;4.47;;;8.70;99.90;;;;;;5020121;28;20087;-77
2021/12/14 00:51:56;;;;;;;6.53;4.82;;;8.80;99.90;;;;;;5026758;28;20045;-77
2021/12/14 00:54:23;;;;;;;4.45;3.25;;;8.70;99.90;;;;;;5040616;28;20056;-77
2021/12/14 00:56:50;;;;;;;15.35;4.35;;;8.70;99.90;;;;;;5038058;28;20041;-77
2021/12/14 00:59:18;;;;;;;3.65;2.55;;;8.70;99.90;;;;;;5035716;28;20175;-77
2021/12/14 01:02:00;;;;;;;5.47;3.60;;;8.70;99.90;;;;;;5034712;28;20413;-77
2021/12/14 01:04:31;;;;;;;6.10;4.32;;;8.60;99.90;;;;;;5027032;28;20040;-77
2021/12/14 01:06:59;;;;;;;8.85;5.25;;;8.60;99.90;;;;;;5055869;28;20095;-77
2021/12/14 01:09:37;;;;;;;7.07;3.75;;;8.60;99.90;;;;;;5021269;28;20041;-77
2021/12/14 01:12:10;;;;;;;7.93;4.88;;;8.60;99.90;;;;;;5033600;28;20409;-77
2021/12/14 01:14:47;;;;;;;1.80;1.70;;;8.70;99.90;;;;;;5042194;28;20393;-77
2021/12/14 01:17:41;;;;;;;8.45;4.85;;;8.70;99.90;;;;;;5022269;28;20045;-77
2021/12/14 01:20:10;;;;;;;2.40;2.15;;;8.60;99.90;;;;;;5024720;28;20045;-77
2021/12/14 01:25:26;;;;;;;14.35;7.25;;;8.70;99.90;;;;;;5042111;28;20521;-77
2021/12/14 01:28:02;;;;;;;8.05;5.10;;;8.60;99.90;;;;;;5023381;28;20052;-77
2021/12/14 01:30:43;;;;;;;6.75;2.80;;;8.60;99.90;;;;;;5034774;28;20063;-77
2021/12/14 01:33:12;;;;;;;6.72;3.75;;;8.60;99.90;;;;;;5013717;28;20032;-77
2021/12/14 01:35:41;;;;;;;5.35;3.63;;;8.60;99.90;;;;;;5021449;28;20047;-77
2021/12/14 01:40:58;;;;;;;5.82;4.15;;;8.60;99.90;;;;;;5053338;28;20083;-77
2021/12/14 01:43:30;;;;;;;3.58;2.15;;;8.60;99.90;;;;;;5019585;28;20048;-77
2021/12/14 01:46:00;;;;;;;0.50;0.50;;;8.60;99.90;;;;;;5031718;28;20048;-77
2021/12/14 01:48:27;;;;;;;18.13;8.95;;;8.60;99.90;;;;;;5020927;28;20041;-77
2021/12/14 01:50:58;;;;;;;3.17;2.80;;;8.60;99.90;;;;;;5038032;28;20807;-77
2021/12/14 01:53:24;;;;;;;4.07;3.67;;;8.70;99.90;;;;;;5019407;28;20051;-77
2021/12/14 01:55:54;;;;;;;1.52;1.42;;;8.60;99.90;;;;;;5020383;28;20099;-77
2021/12/14 01:58:32;;;;;;;2.90;2.00;;;8.60;99.90;;;;;;5037100;28;20055;-77
2021/12/14 02:01:03;;;;;;;1.58;1.48;;;8.60;99.90;;;;;;5029004;28;20493;-77
2021/12/14 02:03:44;;;;;;;4.07;2.33;;;8.60;99.90;;;;;;5042956;28;20448;-76
2021/12/14 02:06:16;;;;;;;6.32;4.03;;;8.60;99.90;;;;;;5022390;28;20041;-77
2021/12/14 02:08:42;;;;;;;5.20;3.17;;;8.60;99.90;;;;;;5037549;28;20523;-77
2021/12/14 02:11:09;;;;;;;9.52;3.97;;;8.60;99.90;;;;;;5022356;28;20046;-77
2021/12/14 02:13:47;;;;;;;4.03;3.47;;;8.60;99.90;;;;;;5030868;28;20792;-77
2021/12/14 02:16:17;;;;;;;4.22;3.13;;;8.60;99.90;;;;;;5031308;28;20072;-77
2021/12/14 02:18:46;;;;;;;2.60;2.30;;;8.60;99.90;;;;;;5024069;28;20041;-77
2021/12/14 02:21:13;;;;;;;1.35;1.25;;;8.60;99.90;;;;;;5068458;28;20080;-77
2021/12/14 02:23:42;;;;;;;3.92;3.42;;;8.60;99.90;;;;;;5038851;28;20041;-77
2021/12/14 02:26:12;;;;;;;4.57;2.72;;;8.60;99.90;;;;;;5033809;28;20048;-77
2021/12/14 02:28:37;;;;;;;8.23;4.88;;;8.60;99.90;;;;;;5038607;28;20037;-77
2021/12/14 02:31:07;;;;;;;4.07;3.65;;;8.60;99.90;;;;;;5032772;28;20049;-77
2021/12/14 02:33:36;;;;;;;1.15;1.05;;;8.60;99.90;;;;;;5016520;28;20073;-77
2021/12/14 02:36:05;;;;;;;4.47;3.45;;;8.60;99.90;;;;;;5026306;28;20049;-77
2021/12/14 02:38:31;;;;;;;10.52;6.40;;;8.60;99.90;;;;;;5026447;28;20128;-77
2021/12/14 02:41:01;;;;;;;10.15;2.03;;;8.60;99.90;;;;;;5020756;28;20147;-77
2021/12/14 02:43:32;;;;;;;6.88;4.82;;;8.50;99.90;;;;;;5027544;28;20091;-77
2021/12/14 02:46:20;;;;;;;11.55;5.88;;;8.50;99.90;;;;;;5039409;28;20037;-77
2021/12/14 02:48:53;;;;;;;16.15;7.10;;;8.50;99.90;;;;;;5025939;28;20033;-77
2021/12/14 02:51:22;;;;;;;;;;;8.50;99.90;;;;;;5041365;28;20040;-77
2021/12/14 02:53:51;;;;;;;18.55;4.85;;;8.50;99.90;;;;;;5068801;28;19925;-77
2021/12/14 02:56:21;;;;;;;3.72;3.15;;;8.50;99.90;;;;;;5021203;28;20221;-77
2021/12/14 02:58:48;;;;;;;8.48;4.18;;;8.50;99.90;;;;;;5023688;28;20069;-78
2021/12/14 03:01:16;;;;;;;5.53;3.60;;;8.50;99.90;;;;;;5043160;28;20476;-77
2021/12/14 03:03:43;;;;;;;11.88;7.13;;;8.50;99.90;;;;;;5028316;28;20037;-77
2021/12/14 03:06:11;;;;;;;2.80;1.85;;;8.50;99.90;;;;;;5041299;28;20120;-77
2021/12/14 03:08:45;;;;;;;5.53;4.38;;;8.50;99.90;;;;;;5044447;28;20553;-76
2021/12/14 03:11:12;;;;;;;8.63;4.13;;;8.50;99.90;;;;;;5050747;28;20579;-77
2021/12/14 03:13:40;;;;;;;7.35;4.38;;;8.40;99.90;;;;;;5044047;28;20033;-77
2021/12/14 03:16:12;;;;;;;2.03;1.85;;;8.40;99.90;;;;;;5027193;28;20064;-77
2021/12/14 03:18:43;;;;;;;2.50;2.30;;;8.40;99.90;;;;;;5072273;28;20516;-77
2021/12/14 03:21:15;;;;;;;0.82;0.73;;;8.50;99.90;;;;;;5039036;28;20045;-76
2021/12/14 03:23:47;;;;;;;4.53;3.83;;;8.50;99.90;;;;;;5053744;28;20049;-77
2021/12/14 03:26:15;;;;;;;5.20;3.67;;;8.40;99.90;;;;;;5074514;28;20048;-77
2021/12/14 03:28:46;;;;;;;13.32;7.97;;;8.40;99.90;;;;;;5035947;28;20524;-77
2021/12/14 03:31:19;;;;;;;9.90;5.78;;;8.40;99.90;;;;;;5072343;28;20133;-77
2021/12/14 03:33:52;;;;;;;10.13;5.07;;;8.50;99.90;;;;;;5043172;28;20072;-77
2021/12/14 03:36:23;;;;;;;20.63;12.40;;;8.40;99.90;;;;;;5016355;28;20398;-77
2021/12/14 03:38:54;;;;;;;9.85;5.82;;;8.50;99.90;;;;;;5034438;28;20120;-78
2021/12/14 03:41:28;;;;;;;8.18;4.30;;;8.50;99.90;;;;;;5043816;28;20049;-77
2021/12/14 03:43:59;;;;;;;14.15;7.32;;;8.50;99.90;;;;;;5038382;28;20076;-77
2021/12/14 03:46:28;;;;;;;4.97;3.40;;;8.50;99.90;;;;;;5067390;28;20459;-77
2021/12/14 03:48:54;;;;;;;9.70;3.95;;;8.50;99.90;;;;;;5017682;28;20434;-77
2021/12/14 03:51:22;;;;;;;2.15;1.60;;;8.50;99.90;;;;;;5040285;28;20048;-77
2021/12/14 03:53:50;;;;;;;7.57;6.28;;;8.50;99.90;;;;;;5025617;28;20037;-77
2021/12/14 03:56:18;;;;;;;6.95;3.42;;;8.50;99.90;;;;;;5022954;28;20123;-78
2021/12/14 03:58:44;;;;;;;5.70;3.70;;;8.50;99.90;;;;;;5051105;28;20045;-77
2021/12/14 04:01:22;;;;;;;11.68;7.82;;;8.50;99.90;;;;;;5019360;28;20049;-77
2021/12/14 04:03:55;;;;;;;8.48;5.18;;;8.50;99.90;;;;;;5036557;28;20084;-77
2021/12/14 04:06:21;;;;;;;5.35;4.70;;;8.50;99.90;;;;;;5029663;28;20842;-77
2021/12/14 04:08:48;;;;;;;12.43;6.20;;;8.50;99.90;;;;;;5022456;28;20048;-77
2021/12/14 04:11:15;;;;;;;14.68;6.78;;;8.50;99.90;;;;;;5034980;28;20037;-77
2021/12/14 04:13:47;;;;;;;3.92;3.13;;;8.50;99.90;;;;;;5034503;28;20120;-77
2021/12/14 04:16:18;;;;;;;15.18;9.52;;;8.50;99.90;;;;;;5042023;28;20045;-77
2021/12/14 04:18:44;;;;;;;10.73;6.18;;;8.50;99.90;;;;;;5044203;28;20064;-77
2021/12/14 04:21:10;;;;;;;10.88;5.97;;;8.50;99.90;;;;;;5041054;28;20063;-77
2021/12/14 04:23:41;;;;;;;3.95;3.25;;;8.50;99.90;;;;;;5023132;28;20052;-77
2021/12/14 04:26:09;;;;;;;5.20;4.05;;;8.50;99.90;;;;;;5072745;28;20107;-77
2021/12/14 04:28:41;;;;;;;23.48;14.32;;;8.50;99.90;;;;;;5017857;28;20041;-77
2021/12/14 04:31:07;;;;;;;2.33;1.02;;;8.50;99.90;;;;;;5036823;28;20079;-77
2021/12/14 04:33:37;;;;;;;4.03;2.58;;;8.50;99.90;;;;;;5034611;28;20113;-77
2021/12/14 04:36:09;;;;;;;1.92;1.05;;;8.50;99.90;;;;;;5041531;28;20124;-77
2021/12/14 04:38:45;;;;;;;9.60;5.85;;;8.50;99.90;;;;;;5022408;28;20049;-77
2021/12/14 04:52:01;;;;;;;8.23;5.45;;;8.50;99.90;;;;;;5068611;28;20111;-77
2021/12/14 04:54:40;;;;;;;10.88;6.88;;;8.60;99.90;;;;;;5017341;28;20029;-77
2021/12/14 04:57:43;;;;;;;9.02;4.95;;;8.50;99.90;;;;;;5016350;28;20554;-77
2021/12/14 05:00:20;;;;;;;1.65;1.55;;;8.50;99.90;;;;;;5066086;28;20063;-77
2021/12/14 05:02:47;;;;;;;6.15;4.13;;;8.50;99.90;;;;;;5034609;28;20041;-77
2021/12/14 05:05:40;;;;;;;18.20;12.00;;;8.50;99.90;;;;;;5022233;28;20392;-77
2021/12/14 05:10:41;;;;;;;2.95;2.65;;;8.50;99.90;;;;;;5042084;28;20080;-77
2021/12/14 05:13:07;;;;;;;5.10;2.67;;;8.50;99.90;;;;;;5027549;28;20041;-77
2021/12/14 05:15:37;;;;;;;12.68;6.72;;;8.50;99.90;;;;;;5038225;28;20033;-77
2021/12/14 05:18:10;;;;;;;4.15;3.20;;;8.40;99.90;;;;;;5016155;28;20417;-77
2021/12/14 05:20:36;;;;;;;0.75;0.75;;;8.40;99.90;;;;;;5041372;28;20401;-77
2021/12/14 05:23:04;;;;;;;5.90;3.80;;;8.40;99.90;;;;;;5039295;28;20041;-77
2021/12/14 05:25:30;;;;;;;2.53;2.10;;;8.40;99.90;;;;;;5037047;28;20048;-77
2021/12/14 05:28:01;;;;;;;4.25;2.75;;;8.40;99.90;;;;;;5035516;28;20041;-78
2021/12/14 05:30:34;;;;;;;8.02;5.47;;;8.40;99.90;;;;;;5036971;28;20044;-77
2021/12/14 05:33:07;;;;;;;7.82;4.65;;;8.40;99.90;;;;;;5042432;28;20048;-77
2021/12/14 05:35:37;;;;;;;10.73;7.30;;;8.30;99.90;;;;;;5024612;28;20443;-77
2021/12/14 05:38:04;;;;;;;14.18;8.23;;;8.30;99.90;;;;;;5017056;28;20044;-76
2021/12/14 05:43:06;;;;;;;6.60;4.03;;;8.30;99.90;;;;;;5042124;28;20455;-77
2021/12/14 05:45:43;;;;;;;14.15;9.38;;;8.30;99.90;;;;;;5025159;28;20052;-77
2021/12/14 05:48:15;;;;;;;5.18;2.17;;;8.30;99.90;;;;;;5019190;28;20045;-77
2021/12/14 05:50:45;;;;;;;4.53;4.13;;;8.30;99.90;;;;;;5035984;28;20167;-77
2021/12/14 05:53:26;;;;;;;27.58;16.83;;;8.30;99.90;;;;;;5038870;28;20091;-77
2021/12/14 05:55:52;;;;;;;11.38;6.80;;;8.40;99.90;;;;;;5071207;28;20088;-77
2021/12/14 05:58:23;;;;;;;6.10;4.80;;;8.40;99.90;;;;;;5031967;28;20057;-77
2021/12/14 06:00:57;;;;;;;11.38;7.53;;;8.40;99.90;;;;;;5037622;28;20068;-77
2021/12/14 06:03:29;;;;;;;11.75;7.60;;;8.40;99.90;;;;;;5043832;28;20071;-77
2021/12/14 06:05:57;;;;;;;6.57;5.37;;;8.40;99.90;;;;;;5021419;28;20037;-78
2021/12/14 06:08:30;;;;;;;12.98;7.50;;;8.40;99.90;;;;;;5023642;28;20306;-77
2021/12/14 06:10:56;;;;;;;7.03;4.53;;;8.30;99.90;;;;;;5038431;28;20122;-77
2021/12/14 06:13:35;;;;;;;20.70;11.43;;;8.30;99.90;;;;;;5038334;28;20207;-77
2021/12/14 06:16:01;;;;;;;8.88;6.05;;;8.30;99.90;;;;;;5067439;28;20096;-77
2021/12/14 06:18:27;;;;;;;11.57;6.32;;;8.30;99.90;;;;;;5016838;28;20052;-76
2021/12/14 06:20:53;;;;;;;3.05;2.78;;;8.40;99.90;;;;;;5038287;28;20040;-76
2021/12/14 06:23:24;;;;;;;6.50;4.55;;;8.30;99.90;;;;;;5039740;28;20696;-76
2021/12/14 06:25:50;;;;;;;12.13;7.32;;;8.30;99.90;;;;;;5039395;28;20404;-76
2021/12/14 06:28:27;;;;;;;54.80;31.67;;;8.30;99.90;;;;;;5038054;28;20037;-76
2021/12/14 06:30:55;;;;;;;8.60;3.25;;;8.30;99.90;;;;;;5027968;28;22998;-76
2021/12/14 06:33:21;;;;;;;6.07;5.32;;;8.30;99.90;;;;;;5026553;28;20076;-76
2021/12/14 06:35:51;;;;;;;7.57;3.55;;;8.30;99.90;;;;;;5037328;28;20045;-76
2021/12/14 06:38:25;;;;;;;22.20;11.82;;;8.30;99.90;;;;;;5035543;28;20044;-76
2021/12/14 06:40:51;;;;;;;2.20;2.10;;;8.30;99.90;;;;;;5020812;28;20043;-76
2021/12/14 06:43:29;;;;;;;34.10;19.55;;;8.30;99.90;;;;;;5033064;28;20042;-76
2021/12/14 06:46:03;;;;;;;4.05;2.67;;;8.30;99.90;;;;;;5018443;28;20112;-76
2021/12/14 06:48:39;;;;;;;25.25;14.23;;;8.30;99.90;;;;;;5022499;28;20041;-77
2021/12/14 06:51:10;;;;;;;15.88;9.07;;;8.30;99.90;;;;;;5020796;28;22049;-76
2021/12/14 06:53:37;;;;;;;34.05;17.42;;;8.30;99.90;;;;;;5038966;28;20033;-76
2021/12/14 06:56:06;;;;;;;4.75;3.63;;;8.30;99.90;;;;;;5070244;28;20439;-76
2021/12/14 06:58:38;;;;;;;14.40;8.77;;;8.30;99.90;;;;;;5031098;28;20045;-76
2021/12/14 07:01:09;;;;;;;21.92;10.82;;;8.30;99.90;;;;;;5042016;28;20117;-76
2021/12/14 07:03:51;;;;;;;20.33;9.02;;;8.30;99.90;;;;;;5054381;28;20514;-76
2021/12/14 07:06:27;;;;;;;11.63;6.50;;;8.30;99.90;;;;;;5018706;28;20429;-76
2021/12/14 07:08:56;;;;;;;17.70;11.40;;;8.30;99.90;;;;;;5037185;28;20032;-76
2021/12/14 07:11:24;;;;;;;5.50;2.55;;;8.30;99.90;;;;;;5054906;28;20041;-76
2021/12/14 07:13:52;;;;;;;5.45;3.80;;;8.30;99.90;;;;;;5034585;28;20089;-76
2021/12/14 07:16:37;;;;;;;15.25;9.23;;;8.30;99.90;;;;;;5052874;28;20404;-77
2021/12/14 07:19:06;;;;;;;16.00;4.95;;;8.30;99.90;;;;;;5044995;28;20082;-77
2021/12/14 07:21:47;;;;;;;4.13;2.10;;;8.30;99.90;;;;;;5037414;28;20047;-76
2021/12/14 07:24:22;;;;;;;14.48;7.35;;;8.30;99.90;;;;;;5039078;28;20123;-77
2021/12/14 07:27:23;;;;;;;2.88;2.63;;;8.30;99.90;;;;;;5025079;28;20049;-77
2021/12/14 07:29:49;;;;;;;14.68;5.88;;;8.30;99.90;;;;;;5042310;28;20072;-77
2021/12/14 07:32:41;;;;;;;7.90;5.07;;;8.30;99.90;;;;;;5044313;28;20702;-76
2021/12/14 07:35:51;;;;;;;15.80;8.00;;;8.30;99.90;;;;;;5025140;28;20040;-77
2021/12/14 07:38:39;;;;;;;13.65;7.15;;;8.30;99.90;;;;;;5013718;28;20047;-76
2021/12/14 07:41:20;;;;;;;2.83;2.20;;;8.30;99.90;;;;;;5071990;28;20417;-77
2021/12/14 07:43:54;;;;;;;35.80;16.10;;;8.30;99.90;;;;;;5037250;28;20049;-76
2021/12/14 07:46:32;;;;;;;5.13;4.55;;;8.30;99.90;;;;;;5025959;28;20049;-76
2021/12/14 07:49:01;;;;;;;26.42;13.55;;;8.40;99.90;;;;;;5033437;28;20038;-76
2021/12/14 07:51:30;;;;;;;11.90;7.13;;;8.40;99.90;;;;;;5035262;28;20045;-76
2021/12/14 07:54:04;;;;;;;9.27;5.32;;;8.30;99.90;;;;;;5024399;28;20536;-76
2021/12/14 07:56:37;;;;;;;17.02;9.55;;;8.40;99.90;;;;;;5050216;28;20056;-76
2021/12/14 07:59:29;;;;;;;10.93;7.18;;;8.40;99.90;;;;;;5026700;28;20069;-76
2021/12/14 08:02:11;;;;;;;27.15;14.65;;;8.40;99.90;;;;;;5029717;28;20045;-76
2021/12/14 08:04:39;;;;;;;3.88;3.00;;;8.40;99.90;;;;;;5033604;28;20489;-76
2021/12/14 08:07:07;;;;;;;14.35;7.35;;;8.40;99.90;;;;;;5024184;28;20073;-76
2021/12/14 08:09:44;;;;;;;9.38;5.95;;;8.40;99.90;;;;;;5057939;28;20570;-76
2021/12/14 08:12:10;;;;;;;35.92;10.10;;;8.40;99.90;;;;;;5026705;28;20038;-76
2021/12/14 08:14:36;;;;;;;5.80;3.90;;;8.40;99.90;;;;;;5036443;28;20720;-76
2021/12/14 08:17:09;;;;;;;13.13;7.47;;;8.40;99.90;;;;;;5067062;28;20057;-76
2021/12/14 08:19:42;;;;;;;2.58;2.38;;;8.40;99.90;;;;;;5066605;28;20397;-76
2021/12/14 08:22:10;;;;;;;;;;;8.40;99.90;;;;;;5071672;28;20045;-76
2021/12/14 08:24:37;;;;;;;4.07;2.35;;;8.40;99.90;;;;;;5040117;28;19924;-76
2021/12/14 08:27:05;;;;;;;3.08;2.05;;;8.40;99.90;;;;;;5041335;28;20076;-76
2021/12/14 08:29:35;;;;;;;5.05;3.90;;;8.40;99.90;;;;;;5047545;28;20041;-76
2021/12/14 08:32:09;;;;;;;5.75;3.95;;;8.50;99.90;;;;;;5038034;28;20106;-76
2021/12/14 08:34:44;;;;;;;7.53;5.18;;;8.40;99.90;;;;;;5019360;28;20037;-76
2021/12/14 08:37:14;;;;;;;17.13;8.55;;;8.50;99.90;;;;;;5040754;28;20041;-76
2021/12/14 08:39:45;;;;;;;24.55;11.65;;;8.50;99.90;;;;;;5020689;28;20056;-76
2021/12/14 08:42:23;;;;;;;42.95;16.15;;;8.50;99.90;;;;;;5037549;28;20089;-76
2021/12/14 08:44:54;;;;;;;6.82;5.30;;;8.50;99.90;;;;;;5041190;28;20060;-76
2021/12/14 08:47:23;;;;;;;10.52;5.68;;;8.60;99.90;;;;;;5037116;28;20101;-76
2021/12/14 08:49:49;;;;;;;1.38;1.25;;;8.60;99.90;;;;;;5028291;28;20041;-76
2021/12/14 08:52:15;;;;;;;2.15;1.70;;;8.60;99.90;;;;;;5039829;28;20130;-76
2021/12/14 08:54:41;;;;;;;10.68;6.88;;;8.60;99.90;;;;;;5043376;28;20043;-76
2021/12/14 08:57:15;;;;;;;8.68;6.78;;;8.60;99.90;;;;;;5040162;28;20049;-76
2021/12/14 08:59:45;;;;;;;9.75;5.13;;;8.60;99.90;;;;;;5023577;28;20080;-76
2021/12/14 09:02:14;;;;;;;7.15;3.72;;;8.60;99.90;;;;;;5038398;28;20067;-76
2021/12/14 09:04:51;;;;;;;26.65;8.73;;;8.60;99.90;;;;;;5045859;28;20099;-76
2021/12/14 09:07:20;;;;;;;7.38;5.57;;;8.60;99.90;;;;;;5034215;28;20040;-77
2021/12/14 09:09:47;;;;;;;12.68;6.78;;;8.60;99.90;;;;;;5067572;28;20075;-76
2021/12/14 09:12:31;;;;;;;22.85;7.53;;;8.60;99.90;;;;;;5041467;28;20091;-76
2021/12/14 09:15:04;;;;;;;2.85;1.95;;;8.60;99.90;;;;;;5032510;28;20642;-76
2021/12/14 09:17:30;;;;;;;3.30;3.05;;;8.70;99.90;;;;;;5077118;28;20186;-76
2021/12/14 09:20:00;;;;;;;12.82;7.07;;;8.70;99.90;;;;;;5049238;28;20059;-76
2021/12/14 09:22:41;;;;;;;11.88;5.57;;;8.70;99.90;;;;;;5042926;28;20117;-76
2021/12/14 09:25:11;;;;;;;10.70;6.60;;;8.70;99.90;;;;;;5052179;28;20040;-76
2021/12/14 09:27:37;;;;;;;11.25;6.70;;;8.70;99.90;;;;;;5052819;28;20120;-76
2021/12/14 09:30:06;;;;;;;2.63;2.38;;;8.70;99.90;;;;;;5042066;28;20037;-76
2021/12/14 09:32:34;;;;;;;25.58;11.10;;;8.70;99.90;;;;;;5028259;28;20048;-76
2021/12/14 09:35:02;;;;;;;7.50;4.43;;;8.80;99.90;;;;;;5080470;28;20389;-76
2021/12/14 09:37:31;;;;;;;7.95;4.90;;;8.80;99.90;;;;;;5043768;28;20392;-76
2021/12/14 09:40:01;;;;;;;6.65;4.43;;;8.80;99.90;;;;;;5059344;28;20048;-76
2021/12/14 09:42:32;;;;;;;2.30;2.08;;;8.80;99.90;;;;;;5055361;28;20045;-76
2021/12/14 09:45:04;;;;;;;16.50;8.52;;;8.80;99.90;;;;;;5044052;28;20041;-76
2021/12/14 09:47:31;;;;;;;6.05;3.80;;;8.80;99.90;;;;;;5014696;28;20441;-76
2021/12/14 09:50:04;;;;;;;16.13;9.55;;;8.80;99.90;;;;;;5016928;28;20040;-76
2021/12/14 09:52:34;;;;;;;12.98;7.38;;;8.80;99.90;;;;;;5040659;28;20454;-76
2021/12/14 09:55:04;;;;;;;4.07;3.78;;;8.80;99.90;;;;;;5037444;28;20132;-76
2021/12/14 09:57:37;;;;;;;7.57;5.65;;;8.80;99.90;;;;;;5038396;28;20140;-76
2021/12/14 10:00:14;;;;;;;2.22;2.08;;;8.80;99.90;;;;;;5016547;28;20094;-76
2021/12/14 10:02:43;;;;;;;12.07;7.97;;;8.80;99.90;;;;;;5015294;28;20038;-76
2021/12/14 10:05:15;;;;;;;12.77;7.60;;;8.80;99.90;;;;;;5032543;28;20037;-76
2021/12/14 10:07:41;;;;;;;2.80;2.40;;;8.80;99.90;;;;;;5035273;28;20336;-76
2021/12/14 10:10:13;;;;;;;20.23;11.60;;;8.80;99.90;;;;;;5022332;28;20048;-76
2021/12/14 10:12:49;;;;;;;17.35;7.43;;;8.80;99.90;;;;;;5033189;28;20095;-76
2021/12/14 10:15:27;;;;;;;15.90;9.38;;;8.90;99.90;;;;;;5019847;28;20037;-76
2021/12/14 10:17:58;;;;;;;24.38;9.15;;;8.80;99.90;;;;;;5022485;28;20048;-76
2021/12/14 10:20:35;;;;;;;5.38;2.28;;;8.80;99.90;;;;;;5064196;28;20410;-76
2021/12/14 10:23:02;;;;;;;5.07;3.22;;;8.80;99.90;;;;;;5017207;28;20048;-76
2021/12/14 10:25:29;;;;;;;6.53;4.43;;;8.90;99.90;;;;;;5030570;28;20040;-76
2021/12/14 10:27:55;;;;;;;9.20;5.55;;;8.90;99.90;;;;;;5022968;28;20367;-75
2021/12/14 10:30:43;;;;;;;7.85;4.70;;;8.80;99.90;;;;;;5050989;28;20128;-76
2021/12/14 10:33:10;;;;;;;7.32;4.05;;;8.80;99.90;;;;;;5038016;28;20048;-76
2021/12/14 10:35:44;;;;;;;10.40;6.90;;;8.90;99.90;;;;;;5056966;28;20128;-76
2021/12/14 10:38:28;;;;;;;7.80;4.85;;;8.80;99.90;;;;;;5068093;28;20080;-76
2021/12/14 10:43:51;;;;;;;19.00;8.80;;;8.90;99.90;;;;;;5036394;28;20037;-76
2021/12/14 10:46:27;;;;;;;19.83;9.88;;;8.90;99.90;;;;;;5033734;28;20135;-76
2021/12/14 10:48:54;;;;;;;7.60;4.20;;;8.90;99.90;;;;;;5032973;28;20048;-76
2021/12/14 10:51:24;;;;;;;17.33;8.18;;;9.00;99.90;;;;;;5031448;28;20110;-76
2021/12/14 10:53:52;;;;;;;24.33;12.23;;;9.00;99.90;;;;;;5034405;28;20033;-76
2021/12/14 10:56:23;;;;;;;2.63;2.45;;;9.00;99.90;;;;;;5070001;28;20048;-76
2021/12/14 10:58:52;;;;;;;4.35;2.88;;;9.00;99.90;;;;;;5017609;28;20056;-76
2021/12/14 11:01:29;;;;;;;3.78;3.35;;;9.00;99.90;;;;;;5022637;28;20541;-76
2021/12/14 11:04:09;;;;;;;4.47;3.17;;;9.00;99.90;;;;;;5035425;28;20056;-76
2021/12/14 11:06:38;;;;;;;11.05;6.72;;;9.10;99.90;;;;;;5072393;28;20048;-76
2021/12/14 11:11:39;;;;;;;2.00;1.00;;;9.20;99.90;;;;;;5041537;28;20110;-76
2021/12/14 11:14:07;;;;;;;20.45;11.10;;;9.20;99.90;;;;;;5050170;28;20190;-76
2021/12/14 11:19:44;;;;;;;39.13;18.80;;;9.20;99.90;;;;;;5043726;28;20077;-76
2021/12/14 11:22:14;;;;;;;11.32;5.63;;;9.20;99.90;;;;;;5077270;28;20049;-76
2021/12/14 11:24:42;;;;;;;2.65;2.45;;;9.20;99.90;;;;;;5060985;28;20045;-76
2021/12/14 11:27:26;;;;;;;14.82;8.13;;;9.30;99.90;;;;;;5027318;28;20060;-77
2021/12/14 11:30:08;;;;;;;6.68;3.60;;;9.30;99.90;;;;;;5057767;28;20052;-76
2021/12/14 11:32:34;;;;;;;7.53;4.80;;;9.30;99.90;;;;;;5036984;28;20041;-76
2021/12/14 11:35:03;;;;;;;4.00;3.25;;;9.30;99.90;;;;;;5040084;28;20045;-76
2021/12/14 11:37:34;;;;;;;3.67;3.00;;;9.30;99.90;;;;;;5024038;28;20124;-76
2021/12/14 11:40:02;;;;;;;4.07;2.05;;;9.30;99.90;;;;;;5025634;28;20448;-76
2021/12/14 11:42:29;;;;;;;3.95;2.63;;;9.30;99.90;;;;;;5022540;28;20048;-76
2021/12/14 11:45:00;;;;;;;6.00;4.18;;;9.30;99.90;;;;;;5019773;28;20228;-76
2021/12/14 11:50:15;;;;;;;0.40;0.40;;;9.30;99.90;;;;;;5025301;28;20045;-76
2021/12/14 11:52:52;;;;;;;6.00;3.90;;;9.20;99.90;;;;;;5021296;28;20037;-76
2021/12/14 11:55:28;;;;;;;7.85;4.53;;;9.30;99.90;;;;;;5032811;28;20106;-76
2021/12/14 11:58:12;;;;;;;7.53;4.63;;;9.30;99.90;;;;;;5047747;28;20118;-76
2021/12/14 12:00:46;;;;;;;33.28;13.80;;;9.30;99.90;;;;;;5034753;28;20029;-76
2021/12/14 12:03:32;;;;;;;6.68;3.72;;;9.30;99.90;;;;;;5035691;28;20052;-76
2021/12/14 12:06:07;;;;;;;6.00;4.30;;;9.30;99.90;;;;;;5019971;28;20037;-76
2021/12/14 12:11:29;;;;;;;9.20;3.95;;;9.30;99.90;;;;;;5068508;28;20049;-76
2021/12/14 12:13:55;;;;;;;5.25;3.95;;;9.30;99.90;;;;;;5032420;28;20082;-75
2021/12/14 12:16:25;;;;;;;4.85;2.17;;;9.30;99.90;;;;;;5020372;28;20083;-76
2021/12/14 12:19:08;;;;;;;5.78;3.30;;;9.30;99.90;;;;;;5035563;28;20041;-76
2021/12/14 12:21:35;;;;;;;2.88;2.65;;;9.30;99.90;;;;;;5027222;28;20044;-75
2021/12/14 12:24:00;;;;;;;0.68;0.68;;;9.30;99.90;;;;;;5042453;28;20512;-76
2021/12/14 12:26:29;;;;;;;27.00;9.77;;;9.30;99.90;;;;;;5024755;28;20034;-75
2021/12/14 12:29:01;;;;;;;3.05;2.28;;;9.30;99.90;;;;;;5016476;28;20163;-76
2021/12/14 12:31:32;;;;;;;2.17;0.45;;;9.30;99.90;;;;;;5031271;28;20145;-75
2021/12/14 12:34:00;;;;;;;3.72;2.70;;;9.30;99.90;;;;;;5020260;28;20063;-76
2021/12/14 12:36:44;;;;;;;8.10;3.95;;;9.30;99.90;;;;;;5037221;28;20037;-76
2021/12/14 12:39:16;;;;;;;11.18;5.40;;;9.30;99.90;;;;;;5035206;28;20432;-75
2021/12/14 12:41:59;;;;;;;12.00;6.65;;;9.40;99.90;;;;;;5035018;28;20425;-76
2021/12/14 12:44:38;;;;;;;14.73;6.88;;;9.40;99.90;;;;;;5058790;28;20052;-76
2021/12/14 12:47:22;;;;;;;6.10;4.22;;;9.40;99.90;;;;;;5051164;28;20393;-76
2021/12/14 12:49:49;;;;;;;;;;;9.50;99.90;;;;;;5041398;28;20119;-75
2021/12/14 12:52:15;;;;;;;4.78;3.33;;;9.50;99.90;;;;;;5040516;28;19970;-76
2021/12/14 12:54:48;;;;;;;7.45;4.97;;;9.50;99.90;;;;;;5036567;28;20103;-75
2021/12/14 12:57:37;;;;;;;3.65;3.05;;;9.50;99.90;;;;;;5037244;28;20080;-76
2021/12/14 13:00:23;;;;;;;11.98;5.93;;;9.50;99.90;;;;;;5050412;28;20045;-76
2021/12/14 13:03:02;;;;;;;1.55;1.45;;;9.50;99.90;;;;;;5060310;28;20051;-77
2021/12/14 13:05:34;;;;;;;4.80;3.35;;;9.50;99.90;;;;;;5028375;28;20124;-76
2021/12/14 13:08:10;;;;;;;13.60;6.47;;;9.60;99.90;;;;;;5022560;28;21850;-75
2021/12/14 13:11:17;;;;;;;1.92;1.40;;;9.60;99.90;;;;;;5034970;28;20041;-75
2021/12/14 13:13:50;;;;;;;22.70;10.07;;;9.60;99.90;;;;;;5001672;28;20597;-75
2021/12/14 13:16:38;;;;;;;17.20;7.90;;;9.70;99.90;;;;;;4992678;28;20132;-75
2021/12/14 13:19:11;;;;;;;3.72;2.10;;;9.60;99.90;;;;;;5022779;28;20763;-75
2021/12/14 13:21:51;;;;;;;5.38;3.03;;;9.70;99.90;;;;;;5017982;28;20069;-75
2021/12/14 13:24:36;;;;;;;2.00;1.13;;;9.70;99.90;;;;;;5028534;28;20048;-75
2021/12/14 13:27:10;;;;;;;5.15;3.05;;;9.70;99.90;;;;;;5020852;28;20056;-75
2021/12/14 13:29:38;;;;;;;12.35;6.57;;;9.70;99.90;;;;;;5022688;28;20089;-75
2021/12/14 13:32:20;;;;;;;6.65;3.08;;;9.70;99.90;;;;;;5039672;28;20036;-75
2021/12/14 13:34:49;;;;;;;1.20;1.10;;;9.70;99.90;;;;;;5050242;28;20041;-75
2021/12/14 13:37:20;;;;;;;8.00;4.18;;;9.60;99.90;;;;;;5022047;28;20037;-75
2021/12/14 13:39:47;;;;;;;0.15;0.15;;;9.70;99.90;;;;;;5033101;28;20398;-76
2021/12/14 13:42:22;;;;;;;5.63;3.17;;;9.60;99.90;;;;;;5040289;28;20082;-75
2021/12/14 13:44:51;;;;;;;0.22;0.22;;;9.60;99.90;;;;;;5051735;28;20124;-75
2021/12/14 13:47:20;;;;;;;3.65;2.33;;;9.60;99.90;;;;;;5037734;28;20079;-75
2021/12/14 13:49:45;;;;;;;1.05;1.02;;;9.60;99.90;;;;;;5041818;28;20037;-75
2021/12/14 13:52:16;;;;;;;11.93;4.55;;;9.60;99.90;;;;;;5037575;28;20056;-75
2021/12/14 13:55:13;;;;;;;11.73;4.78;;;9.70;99.90;;;;;;5060630;28;20041;-75
2021/12/14 13:57:49;;;;;;;2.05;1.85;;;9.60;99.90;;;;;;5045668;28;20052;-75